sensor_id;sensor_type;location;lat;lon;timestamp;pressure;altitude;pressure_sealevel;temperature;humidity
20017;BME280;10169;42.664;23.610;2024-03-06T00:00:52;95103.25;;;0.79;100.00
20017;BME280;10169;42.664;23.610;2024-03-06T00:02:52;95108.75;;;0.84;100.00
20017;BME280;10169;42.664;23.610;2024-03-06T00:04:52;95111.78;;;0.88;100.00
20017;BME280;10169;42.664;23.610;2024-03-06T00:06:53;95112.88;;;0.93;100.00
20017;BME280;10169;42.664;23.610;2024-03-06T00:08:55;95111.63;;;0.89;100.00
20017;BME280;10169;42.664;23.610;2024-03-06T00:10:55;95109.63;;;0.91;100.00
20017;BME280;10169;42.664;23.610;2024-03-06T00:12:56;95109.25;;;0.94;100.00
20017;BME280;10169;42.664;23.610;2024-03-06T00:14:56;95117.19;;;1.01;100.00
20017;BME280;10169;42.664;23.610;2024-03-06T00:16:56;95113.22;;;1.05;100.00
20017;BME280;10169;42.664;23.610;2024-03-06T00:18:56;95110.19;;;1.08;100.00
20017;BME280;10169;42.664;23.610;2024-03-06T00:20:57;95107.16;;;1.04;100.00
20017;BME280;10169;42.664;23.610;2024-03-06T00:22:57;95108.41;;;1.08;100.00
20017;BME280;10169;42.664;23.610;2024-03-06T00:24:59;95110.94;;;1.02;100.00
20017;BME280;10169;42.664;23.610;2024-03-06T00:26:59;95109.72;;;0.98;100.00
20017;BME280;10169;42.664;23.610;2024-03-06T00:28:59;95113.16;;;0.84;100.00
20017;BME280;10169;42.664;23.610;2024-03-06T00:31:00;95113.78;;;0.86;100.00
20017;BME280;10169;42.664;23.610;2024-03-06T00:33:00;95111.00;;;0.87;100.00
20017;BME280;10169;42.664;23.610;2024-03-06T00:35:00;95116.41;;;0.86;100.00
20017;BME280;10169;42.664;23.610;2024-03-06T00:37:01;95117.41;;;0.85;100.00
20017;BME280;10169;42.664;23.610;2024-03-06T00:39:01;95114.88;;;0.77;100.00
20017;BME280;10169;42.664;23.610;2024-03-06T00:41:04;95118.31;;;0.77;100.00
20017;BME280;10169;42.664;23.610;2024-03-06T00:43:04;95115.09;;;0.75;100.00
20017;BME280;10169;42.664;23.610;2024-03-06T00:45:05;95111.22;;;0.71;100.00
20017;BME280;10169;42.664;23.610;2024-03-06T00:47:06;95117.34;;;0.63;100.00
20017;BME280;10169;42.664;23.610;2024-03-06T00:49:06;95113.31;;;0.61;100.00
20017;BME280;10169;42.664;23.610;2024-03-06T00:51:06;95118.66;;;0.53;100.00
20017;BME280;10169;42.664;23.610;2024-03-06T00:53:07;95122.34;;;0.44;100.00
20017;BME280;10169;42.664;23.610;2024-03-06T00:55:08;95117.22;;;0.36;100.00
20017;BME280;10169;42.664;23.610;2024-03-06T00:57:09;95121.16;;;0.32;100.00
20017;BME280;10169;42.664;23.610;2024-03-06T00:59:09;95127.69;;;0.21;100.00
20017;BME280;10169;42.664;23.610;2024-03-06T01:01:10;95129.75;;;0.26;100.00
20017;BME280;10169;42.664;23.610;2024-03-06T01:03:10;95116.59;;;0.19;100.00
20017;BME280;10169;42.664;23.610;2024-03-06T01:05:11;95127.13;;;0.26;100.00
20017;BME280;10169;42.664;23.610;2024-03-06T01:07:11;95129.13;;;0.24;100.00
20017;BME280;10169;42.664;23.610;2024-03-06T01:09:12;95124.72;;;0.24;100.00
20017;BME280;10169;42.664;23.610;2024-03-06T01:11:12;95121.56;;;0.29;100.00
20017;BME280;10169;42.664;23.610;2024-03-06T01:13:14;95120.81;;;0.35;100.00
20017;BME280;10169;42.664;23.610;2024-03-06T01:15:14;95127.69;;;0.36;100.00
20017;BME280;10169;42.664;23.610;2024-03-06T01:17:15;95123.16;;;0.44;100.00
20017;BME280;10169;42.664;23.610;2024-03-06T01:19:15;95125.88;;;0.51;100.00
20017;BME280;10169;42.664;23.610;2024-03-06T01:21:15;95126.69;;;0.51;100.00
20017;BME280;10169;42.664;23.610;2024-03-06T01:23:15;95137.13;;;0.51;100.00
20017;BME280;10169;42.664;23.610;2024-03-06T01:25:17;95125.94;;;0.57;100.00
20017;BME280;10169;42.664;23.610;2024-03-06T01:27:17;95135.75;;;0.70;100.00
20017;BME280;10169;42.664;23.610;2024-03-06T01:29:17;95129.81;;;0.76;100.00
20017;BME280;10169;42.664;23.610;2024-03-06T01:31:18;95136.19;;;0.73;100.00
20017;BME280;10169;42.664;23.610;2024-03-06T01:33:18;95138.97;;;0.72;100.00
20017;BME280;10169;42.664;23.610;2024-03-06T01:35:18;95134.13;;;0.69;100.00
20017;BME280;10169;42.664;23.610;2024-03-06T01:37:19;95131.59;;;0.76;100.00
20017;BME280;10169;42.664;23.610;2024-03-06T01:39:19;95129.53;;;0.71;100.00
20017;BME280;10169;42.664;23.610;2024-03-06T01:41:19;95140.19;;;0.69;100.00
20017;BME280;10169;42.664;23.610;2024-03-06T01:43:20;95144.22;;;0.72;100.00
20017;BME280;10169;42.664;23.610;2024-03-06T01:45:21;95139.38;;;0.69;100.00
20017;BME280;10169;42.664;23.610;2024-03-06T01:47:22;95138.00;;;0.73;100.00
20017;BME280;10169;42.664;23.610;2024-03-06T01:49:22;95143.44;;;0.71;100.00
20017;BME280;10169;42.664;23.610;2024-03-06T01:51:23;95133.31;;;0.68;100.00
20017;BME280;10169;42.664;23.610;2024-03-06T01:53:24;95126.44;;;0.67;100.00
20017;BME280;10169;42.664;23.610;2024-03-06T01:55:27;95126.13;;;0.56;100.00
20017;BME280;10169;42.664;23.610;2024-03-06T01:57:27;95129.53;;;0.56;100.00
20017;BME280;10169;42.664;23.610;2024-03-06T01:59:28;95129.84;;;0.47;100.00
20017;BME280;10169;42.664;23.610;2024-03-06T02:01:28;95137.22;;;0.43;100.00
20017;BME280;10169;42.664;23.610;2024-03-06T02:03:28;95130.03;;;0.31;100.00
20017;BME280;10169;42.664;23.610;2024-03-06T02:05:29;95136.22;;;0.30;100.00
20017;BME280;10169;42.664;23.610;2024-03-06T02:07:31;95132.63;;;0.31;100.00
20017;BME280;10169;42.664;23.610;2024-03-06T02:09:32;95138.56;;;0.25;100.00
20017;BME280;10169;42.664;23.610;2024-03-06T02:11:32;95129.75;;;0.26;100.00
20017;BME280;10169;42.664;23.610;2024-03-06T02:13:33;95133.09;;;0.20;100.00
20017;BME280;10169;42.664;23.610;2024-03-06T02:15:33;95133.16;;;0.12;100.00
20017;BME280;10169;42.664;23.610;2024-03-06T02:17:34;95131.72;;;0.09;100.00
20017;BME280;10169;42.664;23.610;2024-03-06T02:19:38;95132.19;;;0.13;100.00
20017;BME280;10169;42.664;23.610;2024-03-06T02:21:39;95137.47;;;0.05;100.00
20017;BME280;10169;42.664;23.610;2024-03-06T02:23:39;95133.53;;;0.09;100.00
20017;BME280;10169;42.664;23.610;2024-03-06T02:25:39;95135.34;;;0.08;100.00
20017;BME280;10169;42.664;23.610;2024-03-06T02:27:40;95138.81;;;0.00;100.00
20017;BME280;10169;42.664;23.610;2024-03-06T02:29:40;95137.66;;;0.03;100.00
20017;BME280;10169;42.664;23.610;2024-03-06T02:31:41;95145.69;;;0.02;100.00
20017;BME280;10169;42.664;23.610;2024-03-06T02:33:41;95144.88;;;0.01;100.00
20017;BME280;10169;42.664;23.610;2024-03-06T02:35:41;95146.84;;;-0.01;100.00
20017;BME280;10169;42.664;23.610;2024-03-06T02:37:44;95135.06;;;-0.12;100.00
20017;BME280;10169;42.664;23.610;2024-03-06T02:39:44;95138.72;;;-0.06;100.00
20017;BME280;10169;42.664;23.610;2024-03-06T02:41:45;95144.25;;;-0.01;100.00
20017;BME280;10169;42.664;23.610;2024-03-06T02:43:45;95147.28;;;0.03;100.00
20017;BME280;10169;42.664;23.610;2024-03-06T02:45:45;95142.34;;;0.08;100.00
20017;BME280;10169;42.664;23.610;2024-03-06T02:47:46;95137.75;;;0.10;100.00
20017;BME280;10169;42.664;23.610;2024-03-06T02:49:46;95141.81;;;0.12;100.00
20017;BME280;10169;42.664;23.610;2024-03-06T02:51:46;95135.63;;;0.13;100.00
20017;BME280;10169;42.664;23.610;2024-03-06T02:53:46;95141.38;;;0.09;100.00
20017;BME280;10169;42.664;23.610;2024-03-06T02:55:49;95146.22;;;0.12;100.00
20017;BME280;10169;42.664;23.610;2024-03-06T02:57:49;95151.91;;;0.15;100.00
20017;BME280;10169;42.664;23.610;2024-03-06T02:59:50;95151.72;;;0.17;100.00
20017;BME280;10169;42.664;23.610;2024-03-06T03:01:50;95148.50;;;0.15;100.00
20017;BME280;10169;42.664;23.610;2024-03-06T03:03:50;95140.47;;;0.16;100.00
20017;BME280;10169;42.664;23.610;2024-03-06T03:05:51;95145.88;;;0.29;100.00
20017;BME280;10169;42.664;23.610;2024-03-06T03:07:51;95139.66;;;0.30;100.00
20017;BME280;10169;42.664;23.610;2024-03-06T03:09:52;95149.75;;;0.33;100.00
20017;BME280;10169;42.664;23.610;2024-03-06T03:11:53;95145.31;;;0.34;100.00
20017;BME280;10169;42.664;23.610;2024-03-06T03:13:53;95144.78;;;0.38;100.00
20017;BME280;10169;42.664;23.610;2024-03-06T03:15:53;95149.03;;;0.39;100.00
20017;BME280;10169;42.664;23.610;2024-03-06T03:17:53;95147.25;;;0.40;100.00
20017;BME280;10169;42.664;23.610;2024-03-06T03:19:54;95152.28;;;0.41;100.00
20017;BME280;10169;42.664;23.610;2024-03-06T03:21:54;95151.91;;;0.44;100.00
20017;BME280;10169;42.664;23.610;2024-03-06T03:23:55;95152.47;;;0.40;100.00
20017;BME280;10169;42.664;23.610;2024-03-06T03:25:55;95153.38;;;0.47;100.00
20017;BME280;10169;42.664;23.610;2024-03-06T03:27:55;95158.06;;;0.51;100.00
20017;BME280;10169;42.664;23.610;2024-03-06T03:29:55;95154.63;;;0.51;100.00
20017;BME280;10169;42.664;23.610;2024-03-06T03:31:56;95154.25;;;0.54;100.00
20017;BME280;10169;42.664;23.610;2024-03-06T03:33:56;95159.75;;;0.59;100.00
20017;BME280;10169;42.664;23.610;2024-03-06T03:35:56;95158.56;;;0.61;100.00
20017;BME280;10169;42.664;23.610;2024-03-06T03:37:56;95158.56;;;0.61;100.00
20017;BME280;10169;42.664;23.610;2024-03-06T03:39:57;95163.38;;;0.58;100.00
20017;BME280;10169;42.664;23.610;2024-03-06T03:41:57;95169.84;;;0.62;100.00
20017;BME280;10169;42.664;23.610;2024-03-06T03:43:58;95168.47;;;0.66;100.00
20017;BME280;10169;42.664;23.610;2024-03-06T03:45:58;95174.19;;;0.69;100.00
20017;BME280;10169;42.664;23.610;2024-03-06T03:48:00;95168.75;;;0.71;100.00
20017;BME280;10169;42.664;23.610;2024-03-06T03:50:00;95171.00;;;0.74;100.00
20017;BME280;10169;42.664;23.610;2024-03-06T03:52:00;95174.88;;;0.78;100.00
20017;BME280;10169;42.664;23.610;2024-03-06T03:54:01;95182.09;;;0.76;100.00
20017;BME280;10169;42.664;23.610;2024-03-06T03:56:01;95180.94;;;0.64;100.00
20017;BME280;10169;42.664;23.610;2024-03-06T03:58:03;95174.81;;;0.57;100.00
20017;BME280;10169;42.664;23.610;2024-03-06T04:00:03;95175.91;;;0.62;100.00
20017;BME280;10169;42.664;23.610;2024-03-06T04:02:10;95179.84;;;0.58;100.00
20017;BME280;10169;42.664;23.610;2024-03-06T04:04:11;95177.34;;;0.65;100.00
20017;BME280;10169;42.664;23.610;2024-03-06T04:06:11;95181.56;;;0.66;100.00
20017;BME280;10169;42.664;23.610;2024-03-06T04:08:11;95180.94;;;0.64;100.00
20017;BME280;10169;42.664;23.610;2024-03-06T04:10:11;95176.16;;;0.53;100.00
20017;BME280;10169;42.664;23.610;2024-03-06T04:12:12;95183.19;;;0.52;100.00
20017;BME280;10169;42.664;23.610;2024-03-06T04:14:12;95184.09;;;0.45;100.00
20017;BME280;10169;42.664;23.610;2024-03-06T04:16:18;95190.50;;;0.42;100.00
20017;BME280;10169;42.664;23.610;2024-03-06T04:18:19;95197.44;;;0.35;100.00
20017;BME280;10169;42.664;23.610;2024-03-06T04:20:19;95198.50;;;0.41;100.00
20017;BME280;10169;42.664;23.610;2024-03-06T04:22:19;95200.78;;;0.44;100.00
20017;BME280;10169;42.664;23.610;2024-03-06T04:24:20;95211.75;;;0.39;100.00
20017;BME280;10169;42.664;23.610;2024-03-06T04:26:20;95204.72;;;0.11;100.00
20017;BME280;10169;42.664;23.610;2024-03-06T04:28:20;95214.72;;;-0.16;100.00
20017;BME280;10169;42.664;23.610;2024-03-06T04:30:21;95208.13;;;-0.49;100.00
20017;BME280;10169;42.664;23.610;2024-03-06T04:32:21;95215.28;;;-0.43;100.00
20017;BME280;10169;42.664;23.610;2024-03-06T04:34:21;95210.16;;;-0.14;100.00
20017;BME280;10169;42.664;23.610;2024-03-06T04:36:23;95219.69;;;-0.21;100.00
20017;BME280;10169;42.664;23.610;2024-03-06T04:38:23;95216.78;;;-0.26;100.00
20017;BME280;10169;42.664;23.610;2024-03-06T04:40:24;95218.41;;;-0.47;100.00
20017;BME280;10169;42.664;23.610;2024-03-06T04:42:25;95222.63;;;-0.46;100.00
20017;BME280;10169;42.664;23.610;2024-03-06T04:44:25;95214.47;;;-0.43;100.00
20017;BME280;10169;42.664;23.610;2024-03-06T04:46:26;95222.09;;;-0.42;100.00
20017;BME280;10169;42.664;23.610;2024-03-06T04:48:26;95228.38;;;-0.51;100.00
20017;BME280;10169;42.664;23.610;2024-03-06T04:50:26;95227.28;;;-0.56;100.00
20017;BME280;10169;42.664;23.610;2024-03-06T04:52:27;95232.00;;;-0.52;100.00
20017;BME280;10169;42.664;23.610;2024-03-06T04:54:27;95225.72;;;-0.43;100.00
20017;BME280;10169;42.664;23.610;2024-03-06T04:56:27;95232.16;;;-0.31;100.00
20017;BME280;10169;42.664;23.610;2024-03-06T04:58:28;95231.84;;;-0.36;100.00
20017;BME280;10169;42.664;23.610;2024-03-06T05:00:28;95232.56;;;-0.42;100.00
20017;BME280;10169;42.664;23.610;2024-03-06T05:02:29;95234.00;;;-0.39;100.00
20017;BME280;10169;42.664;23.610;2024-03-06T05:04:29;95233.16;;;-0.32;100.00
20017;BME280;10169;42.664;23.610;2024-03-06T05:06:29;95235.34;;;-0.21;100.00
20017;BME280;10169;42.664;23.610;2024-03-06T05:08:30;95239.84;;;-0.15;100.00
20017;BME280;10169;42.664;23.610;2024-03-06T05:10:30;95238.34;;;-0.09;100.00
20017;BME280;10169;42.664;23.610;2024-03-06T05:12:30;95240.72;;;0.00;100.00
20017;BME280;10169;42.664;23.610;2024-03-06T05:14:31;95245.97;;;0.15;100.00
20017;BME280;10169;42.664;23.610;2024-03-06T05:16:31;95241.59;;;0.30;100.00
20017;BME280;10169;42.664;23.610;2024-03-06T05:18:31;95245.47;;;0.34;100.00
20017;BME280;10169;42.664;23.610;2024-03-06T05:20:34;95245.84;;;0.46;100.00
20017;BME280;10169;42.664;23.610;2024-03-06T05:22:34;95256.50;;;0.59;100.00
20017;BME280;10169;42.664;23.610;2024-03-06T05:24:35;95256.03;;;0.70;100.00
20017;BME280;10169;42.664;23.610;2024-03-06T05:26:35;95260.03;;;0.81;100.00
20017;BME280;10169;42.664;23.610;2024-03-06T05:28:35;95261.72;;;0.88;100.00
20017;BME280;10169;42.664;23.610;2024-03-06T05:30:35;95263.88;;;0.99;100.00
20017;BME280;10169;42.664;23.610;2024-03-06T05:32:36;95273.09;;;0.95;100.00
20017;BME280;10169;42.664;23.610;2024-03-06T05:34:37;95262.44;;;0.97;100.00
20017;BME280;10169;42.664;23.610;2024-03-06T05:36:37;95270.28;;;1.11;100.00
20017;BME280;10169;42.664;23.610;2024-03-06T05:38:37;95259.13;;;1.03;100.00
20017;BME280;10169;42.664;23.610;2024-03-06T05:40:38;95279.31;;;1.09;100.00
20017;BME280;10169;42.664;23.610;2024-03-06T05:42:40;95281.19;;;1.15;100.00
20017;BME280;10169;42.664;23.610;2024-03-06T05:44:40;95273.63;;;1.20;100.00
20017;BME280;10169;42.664;23.610;2024-03-06T05:46:41;95288.50;;;1.19;100.00
20017;BME280;10169;42.664;23.610;2024-03-06T05:48:41;95276.03;;;1.21;100.00
20017;BME280;10169;42.664;23.610;2024-03-06T05:50:41;95276.13;;;1.28;100.00
20017;BME280;10169;42.664;23.610;2024-03-06T05:52:42;95281.81;;;1.31;100.00
20017;BME280;10169;42.664;23.610;2024-03-06T05:54:42;95284.34;;;1.25;100.00
20017;BME280;10169;42.664;23.610;2024-03-06T05:56:42;95288.16;;;1.22;100.00
20017;BME280;10169;42.664;23.610;2024-03-06T05:58:43;95294.91;;;1.31;100.00
20017;BME280;10169;42.664;23.610;2024-03-06T06:00:46;95286.03;;;1.47;100.00
20017;BME280;10169;42.664;23.610;2024-03-06T06:02:46;95282.41;;;1.48;100.00
20017;BME280;10169;42.664;23.610;2024-03-06T06:04:46;95282.84;;;1.52;100.00
20017;BME280;10169;42.664;23.610;2024-03-06T06:06:47;95289.47;;;1.69;100.00
20017;BME280;10169;42.664;23.610;2024-03-06T06:08:47;95292.06;;;1.83;100.00
20017;BME280;10169;42.664;23.610;2024-03-06T06:10:47;95300.63;;;1.92;100.00
20017;BME280;10169;42.664;23.610;2024-03-06T06:12:48;95300.38;;;2.08;100.00
20017;BME280;10169;42.664;23.610;2024-03-06T06:14:49;95292.03;;;2.19;100.00
20017;BME280;10169;42.664;23.610;2024-03-06T06:16:49;95304.41;;;2.32;100.00
20017;BME280;10169;42.664;23.610;2024-03-06T06:18:50;95300.09;;;2.45;100.00
20017;BME280;10169;42.664;23.610;2024-03-06T06:20:50;95300.72;;;2.47;100.00
20017;BME280;10169;42.664;23.610;2024-03-06T06:22:51;95294.94;;;2.58;100.00
20017;BME280;10169;42.664;23.610;2024-03-06T06:24:51;95293.44;;;2.70;100.00
20017;BME280;10169;42.664;23.610;2024-03-06T06:26:52;95293.81;;;2.95;100.00
20017;BME280;10169;42.664;23.610;2024-03-06T06:28:52;95298.47;;;3.00;100.00
20017;BME280;10169;42.664;23.610;2024-03-06T06:30:52;95296.91;;;3.12;100.00
20017;BME280;10169;42.664;23.610;2024-03-06T06:32:53;95292.56;;;3.32;100.00
20017;BME280;10169;42.664;23.610;2024-03-06T06:34:53;95296.84;;;3.33;100.00
20017;BME280;10169;42.664;23.610;2024-03-06T06:36:54;95297.44;;;3.35;100.00
20017;BME280;10169;42.664;23.610;2024-03-06T06:38:54;95298.88;;;3.37;100.00
20017;BME280;10169;42.664;23.610;2024-03-06T06:40:55;95297.53;;;3.54;100.00
20017;BME280;10169;42.664;23.610;2024-03-06T06:42:56;95300.19;;;3.61;100.00
20017;BME280;10169;42.664;23.610;2024-03-06T06:44:56;95297.81;;;3.32;100.00
20017;BME280;10169;42.664;23.610;2024-03-06T06:46:56;95301.00;;;3.21;100.00
20017;BME280;10169;42.664;23.610;2024-03-06T06:48:57;95296.19;;;3.24;100.00
20017;BME280;10169;42.664;23.610;2024-03-06T06:50:58;95309.03;;;3.47;100.00
20017;BME280;10169;42.664;23.610;2024-03-06T06:52:58;95307.53;;;3.31;100.00
20017;BME280;10169;42.664;23.610;2024-03-06T06:54:59;95302.47;;;3.30;100.00
20017;BME280;10169;42.664;23.610;2024-03-06T06:56:59;95306.59;;;3.52;100.00
20017;BME280;10169;42.664;23.610;2024-03-06T06:59:00;95308.28;;;3.66;100.00
20017;BME280;10169;42.664;23.610;2024-03-06T07:01:00;95301.16;;;3.47;100.00
20017;BME280;10169;42.664;23.610;2024-03-06T07:03:00;95304.44;;;3.62;100.00
20017;BME280;10169;42.664;23.610;2024-03-06T07:05:00;95300.19;;;3.61;100.00
20017;BME280;10169;42.664;23.610;2024-03-06T07:07:01;95299.78;;;3.57;100.00
20017;BME280;10169;42.664;23.610;2024-03-06T07:09:01;95303.06;;;3.79;100.00
20017;BME280;10169;42.664;23.610;2024-03-06T07:11:02;95300.28;;;3.87;100.00
20017;BME280;10169;42.664;23.610;2024-03-06T07:13:03;95302.94;;;4.00;100.00
20017;BME280;10169;42.664;23.610;2024-03-06T07:15:05;95307.81;;;4.03;100.00
20017;BME280;10169;42.664;23.610;2024-03-06T07:17:06;95300.34;;;4.20;100.00
20017;BME280;10169;42.664;23.610;2024-03-06T07:19:06;95302.97;;;4.26;100.00
20017;BME280;10169;42.664;23.610;2024-03-06T07:21:07;95294.47;;;4.24;100.00
20017;BME280;10169;42.664;23.610;2024-03-06T07:23:07;95298.53;;;4.33;100.00
20017;BME280;10169;42.664;23.610;2024-03-06T07:25:08;95299.56;;;4.39;100.00
20017;BME280;10169;42.664;23.610;2024-03-06T07:27:08;95299.34;;;4.34;100.00
20017;BME280;10169;42.664;23.610;2024-03-06T07:29:09;95295.91;;;4.27;100.00
20017;BME280;10169;42.664;23.610;2024-03-06T07:31:14;95289.88;;;4.59;100.00
20017;BME280;10169;42.664;23.610;2024-03-06T07:33:15;95286.03;;;4.68;100.00
20017;BME280;10169;42.664;23.610;2024-03-06T07:35:15;95281.53;;;4.75;100.00
20017;BME280;10169;42.664;23.610;2024-03-06T07:37:15;95292.47;;;4.85;100.00
20017;BME280;10169;42.664;23.610;2024-03-06T07:39:16;95284.16;;;4.95;100.00
20017;BME280;10169;42.664;23.610;2024-03-06T07:41:16;95289.59;;;5.00;100.00
20017;BME280;10169;42.664;23.610;2024-03-06T07:43:16;95286.75;;;5.14;100.00
20017;BME280;10169;42.664;23.610;2024-03-06T07:45:17;95283.25;;;5.27;100.00
20017;BME280;10169;42.664;23.610;2024-03-06T07:47:17;95284.28;;;5.26;100.00
20017;BME280;10169;42.664;23.610;2024-03-06T07:49:17;95295.78;;;5.51;100.00
20017;BME280;10169;42.664;23.610;2024-03-06T07:51:18;95289.22;;;5.67;100.00
20017;BME280;10169;42.664;23.610;2024-03-06T07:53:18;95284.16;;;5.65;100.00
20017;BME280;10169;42.664;23.610;2024-03-06T07:55:18;95286.16;;;5.70;100.00
20017;BME280;10169;42.664;23.610;2024-03-06T07:57:20;95285.22;;;5.45;100.00
20017;BME280;10169;42.664;23.610;2024-03-06T07:59:21;95280.81;;;5.96;100.00
20017;BME280;10169;42.664;23.610;2024-03-06T08:01:21;95284.97;;;6.10;100.00
20017;BME280;10169;42.664;23.610;2024-03-06T08:03:22;95281.81;;;6.57;100.00
20017;BME280;10169;42.664;23.610;2024-03-06T08:05:22;95277.34;;;6.83;100.00
20017;BME280;10169;42.664;23.610;2024-03-06T08:07:23;95270.47;;;6.75;100.00
20017;BME280;10169;42.664;23.610;2024-03-06T08:09:23;95276.66;;;7.12;100.00
20017;BME280;10169;42.664;23.610;2024-03-06T08:11:24;95277.34;;;7.25;100.00
20017;BME280;10169;42.664;23.610;2024-03-06T08:13:24;95269.97;;;7.82;100.00
20017;BME280;10169;42.664;23.610;2024-03-06T08:15:25;95273.63;;;8.29;100.00
20017;BME280;10169;42.664;23.610;2024-03-06T08:17:25;95268.81;;;8.37;100.00
20017;BME280;10169;42.664;23.610;2024-03-06T08:19:25;95264.69;;;8.41;100.00
20017;BME280;10169;42.664;23.610;2024-03-06T08:21:26;95253.09;;;7.94;100.00
20017;BME280;10169;42.664;23.610;2024-03-06T08:23:27;95255.09;;;8.29;100.00
20017;BME280;10169;42.664;23.610;2024-03-06T08:25:27;95259.75;;;8.56;100.00
20017;BME280;10169;42.664;23.610;2024-03-06T08:27:27;95246.53;;;8.80;100.00
20017;BME280;10169;42.664;23.610;2024-03-06T08:29:28;95246.56;;;9.03;100.00
20017;BME280;10169;42.664;23.610;2024-03-06T08:31:28;95249.53;;;9.18;100.00
20017;BME280;10169;42.664;23.610;2024-03-06T08:33:29;95250.56;;;9.40;100.00
20017;BME280;10169;42.664;23.610;2024-03-06T08:35:29;95248.59;;;9.35;100.00
20017;BME280;10169;42.664;23.610;2024-03-06T08:37:29;95254.47;;;9.37;100.00
20017;BME280;10169;42.664;23.610;2024-03-06T08:39:30;95253.84;;;9.70;100.00
20017;BME280;10169;42.664;23.610;2024-03-06T08:41:30;95252.97;;;9.93;100.00
20017;BME280;10169;42.664;23.610;2024-03-06T08:43:31;95250.94;;;10.11;100.00
20017;BME280;10169;42.664;23.610;2024-03-06T08:45:32;95240.34;;;10.11;100.00
20017;BME280;10169;42.664;23.610;2024-03-06T08:47:32;95247.28;;;10.12;100.00
20017;BME280;10169;42.664;23.610;2024-03-06T08:49:32;95245.38;;;10.41;100.00
20017;BME280;10169;42.664;23.610;2024-03-06T08:51:33;95242.78;;;10.30;100.00
20017;BME280;10169;42.664;23.610;2024-03-06T08:53:33;95241.84;;;10.52;100.00
20017;BME280;10169;42.664;23.610;2024-03-06T08:55:33;95240.75;;;10.98;100.00
20017;BME280;10169;42.664;23.610;2024-03-06T08:57:34;95232.16;;;11.29;100.00
20017;BME280;10169;42.664;23.610;2024-03-06T08:59:35;95238.34;;;11.35;100.00
20017;BME280;10169;42.664;23.610;2024-03-06T09:01:35;95233.81;;;10.97;100.00
20017;BME280;10169;42.664;23.610;2024-03-06T09:03:35;95236.06;;;10.72;100.00
20017;BME280;10169;42.664;23.610;2024-03-06T09:05:36;95238.94;;;11.20;100.00
20017;BME280;10169;42.664;23.610;2024-03-06T09:07:36;95240.50;;;11.98;100.00
20017;BME280;10169;42.664;23.610;2024-03-06T09:09:38;95231.41;;;11.34;100.00
20017;BME280;10169;42.664;23.610;2024-03-06T09:11:38;95243.22;;;12.03;100.00
20017;BME280;10169;42.664;23.610;2024-03-06T09:13:39;95234.16;;;12.25;100.00
20017;BME280;10169;42.664;23.610;2024-03-06T09:15:39;95241.09;;;12.05;100.00
20017;BME280;10169;42.664;23.610;2024-03-06T09:17:40;95235.38;;;12.45;100.00
20017;BME280;10169;42.664;23.610;2024-03-06T09:19:41;95230.00;;;13.35;100.00
20017;BME280;10169;42.664;23.610;2024-03-06T09:21:42;95227.41;;;13.08;100.00
20017;BME280;10169;42.664;23.610;2024-03-06T09:23:42;95227.78;;;12.58;100.00
20017;BME280;10169;42.664;23.610;2024-03-06T09:25:42;95221.75;;;13.41;100.00
20017;BME280;10169;42.664;23.610;2024-03-06T09:27:43;95218.50;;;13.86;100.00
20017;BME280;10169;42.664;23.610;2024-03-06T09:29:43;95214.88;;;14.22;100.00
20017;BME280;10169;42.664;23.610;2024-03-06T09:31:44;95209.91;;;13.79;100.00
20017;BME280;10169;42.664;23.610;2024-03-06T09:33:44;95214.84;;;14.17;100.00
20017;BME280;10169;42.664;23.610;2024-03-06T09:35:46;95211.75;;;14.45;99.47
20017;BME280;10169;42.664;23.610;2024-03-06T09:37:46;95210.25;;;12.99;100.00
20017;BME280;10169;42.664;23.610;2024-03-06T09:39:46;95209.25;;;13.47;100.00
20017;BME280;10169;42.664;23.610;2024-03-06T09:41:47;95208.22;;;13.63;100.00
20017;BME280;10169;42.664;23.610;2024-03-06T09:43:47;95210.41;;;13.71;100.00
20017;BME280;10169;42.664;23.610;2024-03-06T09:45:48;95201.88;;;13.69;100.00
20017;BME280;10169;42.664;23.610;2024-03-06T09:47:49;95214.59;;;13.47;100.00
20017;BME280;10169;42.664;23.610;2024-03-06T09:49:51;95202.56;;;13.44;100.00
20017;BME280;10169;42.664;23.610;2024-03-06T09:51:52;95203.88;;;13.42;100.00
20017;BME280;10169;42.664;23.610;2024-03-06T09:53:53;95203.53;;;13.28;100.00
20017;BME280;10169;42.664;23.610;2024-03-06T09:55:54;95202.38;;;13.66;100.00
20017;BME280;10169;42.664;23.610;2024-03-06T09:57:56;95197.81;;;14.38;100.00
20017;BME280;10169;42.664;23.610;2024-03-06T09:59:56;95198.63;;;14.39;99.83
20017;BME280;10169;42.664;23.610;2024-03-06T10:01:57;95191.44;;;14.70;100.00
20017;BME280;10169;42.664;23.610;2024-03-06T10:03:58;95198.50;;;14.04;100.00
20017;BME280;10169;42.664;23.610;2024-03-06T10:05:59;95194.09;;;14.60;100.00
20017;BME280;10169;42.664;23.610;2024-03-06T10:08:00;95197.25;;;15.47;96.35
20017;BME280;10169;42.664;23.610;2024-03-06T10:10:00;95198.03;;;15.58;89.56
20017;BME280;10169;42.664;23.610;2024-03-06T10:12:01;95188.97;;;15.23;90.85
20017;BME280;10169;42.664;23.610;2024-03-06T10:14:01;95181.44;;;15.51;90.19
20017;BME280;10169;42.664;23.610;2024-03-06T10:16:04;95183.38;;;15.05;94.49
20017;BME280;10169;42.664;23.610;2024-03-06T10:18:12;95178.84;;;14.80;96.27
20017;BME280;10169;42.664;23.610;2024-03-06T10:20:22;95179.88;;;15.09;94.73
20017;BME280;10169;42.664;23.610;2024-03-06T10:22:22;95178.00;;;15.20;92.70
20017;BME280;10169;42.664;23.610;2024-03-06T10:24:29;95170.97;;;15.59;89.10
20017;BME280;10169;42.664;23.610;2024-03-06T10:26:30;95169.44;;;15.18;90.36
20017;BME280;10169;42.664;23.610;2024-03-06T10:28:30;95169.94;;;15.25;90.51